sensor_id;sensor_type;location;lat;lon;timestamp;P1;durP1;ratioP1;P2;durP2;ratioP2
75689;SDS011;64303;53.118;9.044;2023-07-22T00:00:01;10.95;;;8.35;;
75689;SDS011;64303;53.118;9.044;2023-07-22T00:02:55;11.55;;;6.60;;
75689;SDS011;64303;53.118;9.044;2023-07-22T00:05:22;13.75;;;9.25;;
75689;SDS011;64303;53.118;9.044;2023-07-22T00:07:49;9.93;;;7.38;;
75689;SDS011;64303;53.118;9.044;2023-07-22T00:10:16;11.70;;;7.35;;
75689;SDS011;64303;53.118;9.044;2023-07-22T00:12:43;10.20;;;6.57;;
75689;SDS011;64303;53.118;9.044;2023-07-22T00:15:09;12.38;;;8.13;;
75689;SDS011;64303;53.118;9.044;2023-07-22T00:17:37;10.03;;;6.20;;
75689;SDS011;64303;53.118;9.044;2023-07-22T00:20:07;12.98;;;7.20;;
75689;SDS011;64303;53.118;9.044;2023-07-22T00:22:36;12.55;;;7.43;;
75689;SDS011;64303;53.118;9.044;2023-07-22T00:25:05;10.68;;;8.60;;
75689;SDS011;64303;53.118;9.044;2023-07-22T00:27:35;11.40;;;7.90;;
75689;SDS011;64303;53.118;9.044;2023-07-22T00:30:02;10.20;;;5.97;;
75689;SDS011;64303;53.118;9.044;2023-07-22T00:32:30;12.45;;;8.25;;
75689;SDS011;64303;53.118;9.044;2023-07-22T00:34:57;10.95;;;7.05;;
75689;SDS011;64303;53.118;9.044;2023-07-22T00:37:25;11.85;;;6.45;;
75689;SDS011;64303;53.118;9.044;2023-07-22T00:39:52;10.70;;;6.07;;
75689;SDS011;64303;53.118;9.044;2023-07-22T00:42:19;9.77;;;6.57;;
75689;SDS011;64303;53.118;9.044;2023-07-22T00:44:46;12.07;;;6.78;;
75689;SDS011;64303;53.118;9.044;2023-07-22T00:47:13;12.90;;;5.68;;
75689;SDS011;64303;53.118;9.044;2023-07-22T00:49:40;12.18;;;6.57;;
75689;SDS011;64303;53.118;9.044;2023-07-22T00:52:07;12.98;;;11.25;;
75689;SDS011;64303;53.118;9.044;2023-07-22T00:54:35;9.82;;;6.60;;
75689;SDS011;64303;53.118;9.044;2023-07-22T00:57:02;11.85;;;10.70;;
75689;SDS011;64303;53.118;9.044;2023-07-22T00:59:28;9.40;;;6.88;;
75689;SDS011;64303;53.118;9.044;2023-07-22T01:01:55;9.63;;;6.43;;
75689;SDS011;64303;53.118;9.044;2023-07-22T01:04:22;12.68;;;8.30;;
75689;SDS011;64303;53.118;9.044;2023-07-22T01:06:49;9.95;;;6.72;;
75689;SDS011;64303;53.118;9.044;2023-07-22T01:09:19;11.65;;;6.07;;
75689;SDS011;64303;53.118;9.044;2023-07-22T01:11:47;14.30;;;5.80;;
75689;SDS011;64303;53.118;9.044;2023-07-22T01:16:40;8.80;;;4.85;;
75689;SDS011;64303;53.118;9.044;2023-07-22T01:19:07;11.75;;;6.75;;
75689;SDS011;64303;53.118;9.044;2023-07-22T01:21:34;11.18;;;6.15;;
75689;SDS011;64303;53.118;9.044;2023-07-22T01:24:03;13.88;;;6.88;;
75689;SDS011;64303;53.118;9.044;2023-07-22T01:26:30;12.07;;;6.65;;
75689;SDS011;64303;53.118;9.044;2023-07-22T01:29:04;13.50;;;7.93;;
75689;SDS011;64303;53.118;9.044;2023-07-22T01:31:33;10.13;;;5.78;;
75689;SDS011;64303;53.118;9.044;2023-07-22T01:34:00;13.65;;;8.00;;
75689;SDS011;64303;53.118;9.044;2023-07-22T01:36:27;8.90;;;7.35;;
75689;SDS011;64303;53.118;9.044;2023-07-22T01:38:53;11.30;;;6.55;;
75689;SDS011;64303;53.118;9.044;2023-07-22T01:41:22;8.77;;;5.97;;
75689;SDS011;64303;53.118;9.044;2023-07-22T01:43:48;13.80;;;7.25;;
75689;SDS011;64303;53.118;9.044;2023-07-22T01:46:15;10.93;;;5.47;;
75689;SDS011;64303;53.118;9.044;2023-07-22T01:48:42;9.63;;;8.20;;
75689;SDS011;64303;53.118;9.044;2023-07-22T01:51:09;10.68;;;6.13;;
75689;SDS011;64303;53.118;9.044;2023-07-22T01:53:36;11.85;;;6.75;;
75689;SDS011;64303;53.118;9.044;2023-07-22T01:56:03;10.05;;;7.15;;
75689;SDS011;64303;53.118;9.044;2023-07-22T01:58:32;11.40;;;6.88;;
75689;SDS011;64303;53.118;9.044;2023-07-22T02:00:58;10.13;;;8.00;;
75689;SDS011;64303;53.118;9.044;2023-07-22T02:03:25;12.30;;;6.18;;
75689;SDS011;64303;53.118;9.044;2023-07-22T02:05:52;10.50;;;7.40;;
75689;SDS011;64303;53.118;9.044;2023-07-22T02:08:19;11.00;;;7.40;;
75689;SDS011;64303;53.118;9.044;2023-07-22T02:10:46;10.52;;;5.00;;
75689;SDS011;64303;53.118;9.044;2023-07-22T02:13:13;9.00;;;5.47;;
75689;SDS011;64303;53.118;9.044;2023-07-22T02:15:42;11.45;;;6.22;;
75689;SDS011;64303;53.118;9.044;2023-07-22T02:18:08;11.05;;;7.50;;
75689;SDS011;64303;53.118;9.044;2023-07-22T02:20:35;14.18;;;7.45;;
75689;SDS011;64303;53.118;9.044;2023-07-22T02:23:01;11.30;;;7.22;;
75689;SDS011;64303;53.118;9.044;2023-07-22T02:25:28;10.23;;;5.53;;
75689;SDS011;64303;53.118;9.044;2023-07-22T02:27:55;10.27;;;6.35;;
75689;SDS011;64303;53.118;9.044;2023-07-22T02:30:22;9.60;;;5.82;;
75689;SDS011;64303;53.118;9.044;2023-07-22T02:32:50;12.82;;;5.75;;
75689;SDS011;64303;53.118;9.044;2023-07-22T02:35:17;12.23;;;6.80;;
75689;SDS011;64303;53.118;9.044;2023-07-22T02:37:43;11.25;;;7.05;;
75689;SDS011;64303;53.118;9.044;2023-07-22T02:40:10;11.70;;;6.22;;
75689;SDS011;64303;53.118;9.044;2023-07-22T02:42:37;12.50;;;7.50;;
75689;SDS011;64303;53.118;9.044;2023-07-22T02:45:04;12.77;;;8.13;;
75689;SDS011;64303;53.118;9.044;2023-07-22T02:47:33;10.35;;;6.95;;
75689;SDS011;64303;53.118;9.044;2023-07-22T02:50:01;12.32;;;6.70;;
75689;SDS011;64303;53.118;9.044;2023-07-22T02:52:28;9.88;;;7.15;;
75689;SDS011;64303;53.118;9.044;2023-07-22T02:55:05;9.45;;;5.78;;
75689;SDS011;64303;53.118;9.044;2023-07-22T02:57:33;10.55;;;5.45;;
75689;SDS011;64303;53.118;9.044;2023-07-22T03:00:00;12.40;;;6.70;;
75689;SDS011;64303;53.118;9.044;2023-07-22T03:02:32;10.18;;;8.15;;
75689;SDS011;64303;53.118;9.044;2023-07-22T03:04:58;11.43;;;7.40;;
75689;SDS011;64303;53.118;9.044;2023-07-22T03:07:26;9.82;;;6.43;;
75689;SDS011;64303;53.118;9.044;2023-07-22T03:09:53;8.48;;;5.63;;
75689;SDS011;64303;53.118;9.044;2023-07-22T03:12:20;13.60;;;7.65;;
75689;SDS011;64303;53.118;9.044;2023-07-22T03:14:47;18.48;;;6.47;;
75689;SDS011;64303;53.118;9.044;2023-07-22T03:17:14;10.27;;;5.97;;
75689;SDS011;64303;53.118;9.044;2023-07-22T03:19:42;11.30;;;6.28;;
75689;SDS011;64303;53.118;9.044;2023-07-22T03:22:09;12.15;;;7.07;;
75689;SDS011;64303;53.118;9.044;2023-07-22T03:24:37;13.60;;;6.60;;
75689;SDS011;64303;53.118;9.044;2023-07-22T03:27:04;8.43;;;5.47;;
75689;SDS011;64303;53.118;9.044;2023-07-22T03:29:31;11.35;;;7.40;;
75689;SDS011;64303;53.118;9.044;2023-07-22T03:31:58;12.35;;;9.02;;
75689;SDS011;64303;53.118;9.044;2023-07-22T03:34:25;13.60;;;6.72;;
75689;SDS011;64303;53.118;9.044;2023-07-22T03:36:52;10.90;;;6.78;;
75689;SDS011;64303;53.118;9.044;2023-07-22T03:39:19;13.88;;;5.95;;
75689;SDS011;64303;53.118;9.044;2023-07-22T03:41:47;10.25;;;6.03;;
75689;SDS011;64303;53.118;9.044;2023-07-22T03:44:14;10.25;;;8.13;;
75689;SDS011;64303;53.118;9.044;2023-07-22T03:46:41;11.57;;;6.70;;
75689;SDS011;64303;53.118;9.044;2023-07-22T03:49:08;9.98;;;7.18;;
75689;SDS011;64303;53.118;9.044;2023-07-22T03:51:34;12.65;;;6.75;;
75689;SDS011;64303;53.118;9.044;2023-07-22T03:54:01;10.95;;;7.75;;
75689;SDS011;64303;53.118;9.044;2023-07-22T03:56:28;10.18;;;6.07;;
75689;SDS011;64303;53.118;9.044;2023-07-22T03:58:56;12.35;;;6.50;;
75689;SDS011;64303;53.118;9.044;2023-07-22T04:03:49;11.25;;;6.30;;
75689;SDS011;64303;53.118;9.044;2023-07-22T04:06:16;10.45;;;7.78;;
75689;SDS011;64303;53.118;9.044;2023-07-22T04:08:43;9.98;;;5.32;;
75689;SDS011;64303;53.118;9.044;2023-07-22T04:11:10;11.52;;;6.65;;
75689;SDS011;64303;53.118;9.044;2023-07-22T04:13:37;12.10;;;7.90;;
75689;SDS011;64303;53.118;9.044;2023-07-22T04:16:05;10.20;;;5.43;;
75689;SDS011;64303;53.118;9.044;2023-07-22T04:18:31;10.60;;;5.57;;
75689;SDS011;64303;53.118;9.044;2023-07-22T04:20:59;10.50;;;5.35;;
75689;SDS011;64303;53.118;9.044;2023-07-22T04:23:27;10.32;;;6.45;;
75689;SDS011;64303;53.118;9.044;2023-07-22T04:25:53;9.75;;;6.65;;
75689;SDS011;64303;53.118;9.044;2023-07-22T04:28:20;13.98;;;8.45;;
75689;SDS011;64303;53.118;9.044;2023-07-22T04:30:54;9.32;;;5.43;;
75689;SDS011;64303;53.118;9.044;2023-07-22T04:33:22;14.65;;;10.82;;
75689;SDS011;64303;53.118;9.044;2023-07-22T04:35:50;10.85;;;6.97;;
75689;SDS011;64303;53.118;9.044;2023-07-22T04:38:16;10.93;;;5.72;;
75689;SDS011;64303;53.118;9.044;2023-07-22T04:40:43;11.05;;;7.20;;
75689;SDS011;64303;53.118;9.044;2023-07-22T04:43:10;8.18;;;6.90;;
75689;SDS011;64303;53.118;9.044;2023-07-22T04:45:37;8.07;;;6.03;;
75689;SDS011;64303;53.118;9.044;2023-07-22T04:48:05;7.75;;;4.13;;
75689;SDS011;64303;53.118;9.044;2023-07-22T04:50:33;10.75;;;4.82;;
75689;SDS011;64303;53.118;9.044;2023-07-22T04:53:00;8.85;;;7.05;;
75689;SDS011;64303;53.118;9.044;2023-07-22T04:55:27;14.20;;;7.25;;
75689;SDS011;64303;53.118;9.044;2023-07-22T04:57:55;10.07;;;8.15;;
75689;SDS011;64303;53.118;9.044;2023-07-22T05:00:22;9.60;;;5.05;;
75689;SDS011;64303;53.118;9.044;2023-07-22T05:02:49;9.95;;;5.72;;
75689;SDS011;64303;53.118;9.044;2023-07-22T05:05:17;9.02;;;5.28;;
75689;SDS011;64303;53.118;9.044;2023-07-22T05:07:45;9.20;;;5.78;;
75689;SDS011;64303;53.118;9.044;2023-07-22T05:10:13;10.80;;;8.80;;
75689;SDS011;64303;53.118;9.044;2023-07-22T05:12:40;10.75;;;5.68;;
75689;SDS011;64303;53.118;9.044;2023-07-22T05:15:08;9.68;;;5.70;;
75689;SDS011;64303;53.118;9.044;2023-07-22T05:17:36;11.75;;;5.30;;
75689;SDS011;64303;53.118;9.044;2023-07-22T05:20:03;12.70;;;4.97;;
75689;SDS011;64303;53.118;9.044;2023-07-22T05:22:31;13.45;;;5.68;;
75689;SDS011;64303;53.118;9.044;2023-07-22T05:25:00;10.10;;;5.65;;
75689;SDS011;64303;53.118;9.044;2023-07-22T05:27:26;12.27;;;6.28;;
75689;SDS011;64303;53.118;9.044;2023-07-22T05:29:53;10.65;;;5.65;;
75689;SDS011;64303;53.118;9.044;2023-07-22T05:32:20;10.77;;;6.63;;
75689;SDS011;64303;53.118;9.044;2023-07-22T05:34:47;11.50;;;6.72;;
75689;SDS011;64303;53.118;9.044;2023-07-22T05:37:14;9.73;;;4.80;;
75689;SDS011;64303;53.118;9.044;2023-07-22T05:39:40;12.15;;;6.35;;
75689;SDS011;64303;53.118;9.044;2023-07-22T05:42:08;8.35;;;4.35;;
75689;SDS011;64303;53.118;9.044;2023-07-22T05:47:01;13.98;;;4.35;;
75689;SDS011;64303;53.118;9.044;2023-07-22T05:49:28;8.38;;;6.00;;
75689;SDS011;64303;53.118;9.044;2023-07-22T05:51:55;7.68;;;3.95;;
75689;SDS011;64303;53.118;9.044;2023-07-22T05:54:21;16.42;;;5.03;;
75689;SDS011;64303;53.118;9.044;2023-07-22T05:56:48;8.88;;;4.45;;
75689;SDS011;64303;53.118;9.044;2023-07-22T05:59:16;9.98;;;5.45;;
75689;SDS011;64303;53.118;9.044;2023-07-22T06:01:43;8.70;;;5.00;;
75689;SDS011;64303;53.118;9.044;2023-07-22T06:04:09;8.07;;;5.60;;
75689;SDS011;64303;53.118;9.044;2023-07-22T06:06:36;10.23;;;5.57;;
75689;SDS011;64303;53.118;9.044;2023-07-22T06:09:03;11.60;;;4.95;;
75689;SDS011;64303;53.118;9.044;2023-07-22T06:11:30;10.52;;;4.65;;
75689;SDS011;64303;53.118;9.044;2023-07-22T06:13:56;8.48;;;5.13;;
75689;SDS011;64303;53.118;9.044;2023-07-22T06:16:24;9.52;;;4.10;;
75689;SDS011;64303;53.118;9.044;2023-07-22T06:21:18;8.98;;;4.82;;
75689;SDS011;64303;53.118;9.044;2023-07-22T06:23:44;7.70;;;4.05;;
75689;SDS011;64303;53.118;9.044;2023-07-22T06:26:11;8.65;;;5.43;;
75689;SDS011;64303;53.118;9.044;2023-07-22T06:28:38;11.63;;;4.55;;
75689;SDS011;64303;53.118;9.044;2023-07-22T06:31:05;7.38;;;4.97;;
75689;SDS011;64303;53.118;9.044;2023-07-22T06:33:32;6.95;;;4.80;;
75689;SDS011;64303;53.118;9.044;2023-07-22T06:35:59;8.15;;;2.95;;
75689;SDS011;64303;53.118;9.044;2023-07-22T06:38:26;8.27;;;4.00;;
75689;SDS011;64303;53.118;9.044;2023-07-22T06:40:53;7.20;;;4.53;;
75689;SDS011;64303;53.118;9.044;2023-07-22T06:43:19;6.30;;;3.65;;
75689;SDS011;64303;53.118;9.044;2023-07-22T06:45:47;7.47;;;6.00;;
75689;SDS011;64303;53.118;9.044;2023-07-22T06:48:13;7.15;;;3.40;;
75689;SDS011;64303;53.118;9.044;2023-07-22T06:50:47;7.32;;;4.40;;
75689;SDS011;64303;53.118;9.044;2023-07-22T06:53:14;7.00;;;3.47;;
75689;SDS011;64303;53.118;9.044;2023-07-22T06:55:47;6.55;;;4.03;;
75689;SDS011;64303;53.118;9.044;2023-07-22T06:58:14;5.75;;;3.53;;
75689;SDS011;64303;53.118;9.044;2023-07-22T07:00:41;8.15;;;4.05;;
75689;SDS011;64303;53.118;9.044;2023-07-22T07:03:07;4.95;;;2.88;;
75689;SDS011;64303;53.118;9.044;2023-07-22T07:05:34;5.57;;;2.70;;
75689;SDS011;64303;53.118;9.044;2023-07-22T07:08:02;6.22;;;3.13;;
75689;SDS011;64303;53.118;9.044;2023-07-22T07:10:29;5.68;;;2.90;;
75689;SDS011;64303;53.118;9.044;2023-07-22T07:12:56;5.20;;;3.15;;
75689;SDS011;64303;53.118;9.044;2023-07-22T07:15:23;4.32;;;3.80;;
75689;SDS011;64303;53.118;9.044;2023-07-22T07:17:50;4.68;;;4.13;;
75689;SDS011;64303;53.118;9.044;2023-07-22T07:20:17;7.80;;;3.65;;
75689;SDS011;64303;53.118;9.044;2023-07-22T07:22:43;6.30;;;5.70;;
75689;SDS011;64303;53.118;9.044;2023-07-22T07:25:11;6.15;;;4.72;;
75689;SDS011;64303;53.118;9.044;2023-07-22T07:27:40;5.22;;;3.38;;
75689;SDS011;64303;53.118;9.044;2023-07-22T07:30:07;6.90;;;3.28;;
75689;SDS011;64303;53.118;9.044;2023-07-22T07:32:35;4.55;;;3.17;;
75689;SDS011;64303;53.118;9.044;2023-07-22T07:35:02;5.20;;;2.47;;
75689;SDS011;64303;53.118;9.044;2023-07-22T07:37:31;6.45;;;5.82;;
75689;SDS011;64303;53.118;9.044;2023-07-22T07:39:58;5.30;;;3.90;;
75689;SDS011;64303;53.118;9.044;2023-07-22T07:42:26;5.70;;;4.63;;
75689;SDS011;64303;53.118;9.044;2023-07-22T07:44:53;6.47;;;3.65;;
75689;SDS011;64303;53.118;9.044;2023-07-22T07:47:19;4.32;;;2.80;;
75689;SDS011;64303;53.118;9.044;2023-07-22T07:49:46;4.82;;;2.85;;
75689;SDS011;64303;53.118;9.044;2023-07-22T07:52:14;6.00;;;3.67;;
75689;SDS011;64303;53.118;9.044;2023-07-22T07:54:40;3.53;;;2.70;;
75689;SDS011;64303;53.118;9.044;2023-07-22T07:57:07;7.75;;;7.10;;
75689;SDS011;64303;53.118;9.044;2023-07-22T07:59:35;4.78;;;3.25;;
75689;SDS011;64303;53.118;9.044;2023-07-22T08:02:02;4.78;;;1.95;;
75689;SDS011;64303;53.118;9.044;2023-07-22T08:04:34;4.70;;;3.80;;
75689;SDS011;64303;53.118;9.044;2023-07-22T08:07:00;6.28;;;2.60;;
75689;SDS011;64303;53.118;9.044;2023-07-22T08:09:28;4.22;;;2.03;;
75689;SDS011;64303;53.118;9.044;2023-07-22T08:11:54;4.20;;;1.73;;
75689;SDS011;64303;53.118;9.044;2023-07-22T08:14:21;6.78;;;2.13;;
75689;SDS011;64303;53.118;9.044;2023-07-22T08:16:49;5.45;;;4.47;;
75689;SDS011;64303;53.118;9.044;2023-07-22T08:19:16;5.75;;;4.05;;
75689;SDS011;64303;53.118;9.044;2023-07-22T08:21:42;4.20;;;2.78;;
75689;SDS011;64303;53.118;9.044;2023-07-22T08:24:09;5.28;;;2.13;;
75689;SDS011;64303;53.118;9.044;2023-07-22T08:26:35;4.18;;;2.10;;
75689;SDS011;64303;53.118;9.044;2023-07-22T08:29:02;4.45;;;3.15;;
75689;SDS011;64303;53.118;9.044;2023-07-22T08:31:29;3.35;;;3.05;;
75689;SDS011;64303;53.118;9.044;2023-07-22T08:33:57;4.38;;;2.53;;
75689;SDS011;64303;53.118;9.044;2023-07-22T08:36:24;5.38;;;3.33;;
75689;SDS011;64303;53.118;9.044;2023-07-22T08:38:50;4.47;;;2.10;;
75689;SDS011;64303;53.118;9.044;2023-07-22T08:41:17;4.68;;;2.88;;
75689;SDS011;64303;53.118;9.044;2023-07-22T08:43:44;4.75;;;2.80;;
75689;SDS011;64303;53.118;9.044;2023-07-22T08:46:12;4.78;;;2.38;;
75689;SDS011;64303;53.118;9.044;2023-07-22T08:48:40;5.30;;;1.83;;
75689;SDS011;64303;53.118;9.044;2023-07-22T08:51:10;5.03;;;2.72;;
75689;SDS011;64303;53.118;9.044;2023-07-22T08:53:37;4.10;;;2.58;;
75689;SDS011;64303;53.118;9.044;2023-07-22T08:56:04;4.40;;;3.03;;
75689;SDS011;64303;53.118;9.044;2023-07-22T08:58:31;4.97;;;2.33;;
75689;SDS011;64303;53.118;9.044;2023-07-22T09:00:58;5.25;;;2.10;;
75689;SDS011;64303;53.118;9.044;2023-07-22T09:03:24;4.57;;;3.35;;
75689;SDS011;64303;53.118;9.044;2023-07-22T09:05:51;4.90;;;2.08;;
75689;SDS011;64303;53.118;9.044;2023-07-22T09:08:19;5.25;;;2.78;;
75689;SDS011;64303;53.118;9.044;2023-07-22T09:10:46;7.63;;;3.35;;
75689;SDS011;64303;53.118;9.044;2023-07-22T09:13:13;5.70;;;3.20;;
75689;SDS011;64303;53.118;9.044;2023-07-22T09:15:40;6.40;;;2.78;;
75689;SDS011;64303;53.118;9.044;2023-07-22T09:18:07;5.25;;;3.40;;
75689;SDS011;64303;53.118;9.044;2023-07-22T09:20:34;6.05;;;2.35;;
75689;SDS011;64303;53.118;9.044;2023-07-22T09:23:01;4.82;;;3.40;;
75689;SDS011;64303;53.118;9.044;2023-07-22T09:25:29;5.50;;;3.10;;
75689;SDS011;64303;53.118;9.044;2023-07-22T09:27:57;6.32;;;3.15;;
75689;SDS011;64303;53.118;9.044;2023-07-22T09:30:25;5.68;;;2.95;;
75689;SDS011;64303;53.118;9.044;2023-07-22T09:32:53;6.88;;;4.00;;
75689;SDS011;64303;53.118;9.044;2023-07-22T09:35:21;6.75;;;4.32;;
75689;SDS011;64303;53.118;9.044;2023-07-22T09:37:48;6.53;;;3.33;;
75689;SDS011;64303;53.118;9.044;2023-07-22T09:40:16;7.55;;;3.35;;
75689;SDS011;64303;53.118;9.044;2023-07-22T09:42:46;6.40;;;3.53;;
75689;SDS011;64303;53.118;9.044;2023-07-22T09:45:13;9.20;;;4.15;;
75689;SDS011;64303;53.118;9.044;2023-07-22T09:47:40;6.68;;;3.38;;
75689;SDS011;64303;53.118;9.044;2023-07-22T09:50:10;7.05;;;3.70;;
75689;SDS011;64303;53.118;9.044;2023-07-22T09:52:42;7.68;;;4.65;;
75689;SDS011;64303;53.118;9.044;2023-07-22T09:55:10;7.13;;;4.05;;
75689;SDS011;64303;53.118;9.044;2023-07-22T10:00:06;7.97;;;4.32;;
75689;SDS011;64303;53.118;9.044;2023-07-22T10:02:37;7.05;;;4.05;;
75689;SDS011;64303;53.118;9.044;2023-07-22T10:05:06;7.35;;;4.43;;
75689;SDS011;64303;53.118;9.044;2023-07-22T10:07:35;9.30;;;4.18;;
75689;SDS011;64303;53.118;9.044;2023-07-22T10:10:02;6.32;;;3.83;;
75689;SDS011;64303;53.118;9.044;2023-07-22T10:12:29;6.40;;;3.92;;
75689;SDS011;64303;53.118;9.044;2023-07-22T10:14:56;9.02;;;4.65;;
75689;SDS011;64303;53.118;9.044;2023-07-22T10:17:24;6.25;;;3.85;;
75689;SDS011;64303;53.118;9.044;2023-07-22T10:19:53;7.20;;;4.60;;
75689;SDS011;64303;53.118;9.044;2023-07-22T10:22:20;6.45;;;2.88;;
75689;SDS011;64303;53.118;9.044;2023-07-22T10:24:47;9.70;;;4.75;;
75689;SDS011;64303;53.118;9.044;2023-07-22T10:27:14;9.27;;;4.40;;
75689;SDS011;64303;53.118;9.044;2023-07-22T10:29:42;8.98;;;6.25;;
75689;SDS011;64303;53.118;9.044;2023-07-22T10:32:10;10.60;;;5.00;;
75689;SDS011;64303;53.118;9.044;2023-07-22T10:34:38;6.63;;;4.07;;
75689;SDS011;64303;53.118;9.044;2023-07-22T10:37:05;7.53;;;3.80;;
75689;SDS011;64303;53.118;9.044;2023-07-22T10:39:32;8.50;;;5.55;;
75689;SDS011;64303;53.118;9.044;2023-07-22T10:41:59;7.30;;;4.25;;
75689;SDS011;64303;53.118;9.044;2023-07-22T10:44:27;8.00;;;5.32;;
75689;SDS011;64303;53.118;9.044;2023-07-22T10:46:57;9.57;;;4.43;;
75689;SDS011;64303;53.118;9.044;2023-07-22T10:49:24;9.20;;;7.68;;
75689;SDS011;64303;53.118;9.044;2023-07-22T10:51:52;7.55;;;4.22;;
75689;SDS011;64303;53.118;9.044;2023-07-22T10:54:31;10.27;;;4.57;;
75689;SDS011;64303;53.118;9.044;2023-07-22T10:57:02;9.55;;;6.45;;
75689;SDS011;64303;53.118;9.044;2023-07-22T10:59:32;7.65;;;5.22;;
75689;SDS011;64303;53.118;9.044;2023-07-22T11:02:01;7.97;;;4.07;;
75689;SDS011;64303;53.118;9.044;2023-07-22T11:04:28;10.13;;;4.35;;
75689;SDS011;64303;53.118;9.044;2023-07-22T11:07:02;8.63;;;4.32;;
75689;SDS011;64303;53.118;9.044;2023-07-22T11:09:37;7.57;;;4.15;;
75689;SDS011;64303;53.118;9.044;2023-07-22T11:12:07;7.47;;;4.55;;
75689;SDS011;64303;53.118;9.044;2023-07-22T11:14:38;8.25;;;2.70;;
75689;SDS011;64303;53.118;9.044;2023-07-22T11:17:06;7.97;;;4.47;;
75689;SDS011;64303;53.118;9.044;2023-07-22T11:19:34;9.00;;;5.03;;
75689;SDS011;64303;53.118;9.044;2023-07-22T11:22:03;8.10;;;3.88;;
75689;SDS011;64303;53.118;9.044;2023-07-22T11:24:31;9.57;;;4.85;;
75689;SDS011;64303;53.118;9.044;2023-07-22T11:26:59;9.73;;;6.85;;
75689;SDS011;64303;53.118;9.044;2023-07-22T11:29:25;7.55;;;3.72;;
75689;SDS011;64303;53.118;9.044;2023-07-22T11:31:52;6.32;;;3.25;;
75689;SDS011;64303;53.118;9.044;2023-07-22T11:34:19;6.18;;;3.67;;
75689;SDS011;64303;53.118;9.044;2023-07-22T11:39:15;5.43;;;3.15;;
75689;SDS011;64303;53.118;9.044;2023-07-22T11:41:43;6.40;;;2.97;;
75689;SDS011;64303;53.118;9.044;2023-07-22T11:44:10;8.45;;;4.78;;
75689;SDS011;64303;53.118;9.044;2023-07-22T11:46:46;5.20;;;3.10;;
75689;SDS011;64303;53.118;9.044;2023-07-22T11:49:13;6.15;;;5.50;;
75689;SDS011;64303;53.118;9.044;2023-07-22T11:51:41;5.55;;;3.00;;
75689;SDS011;64303;53.118;9.044;2023-07-22T11:54:08;6.82;;;3.17;;
75689;SDS011;64303;53.118;9.044;2023-07-22T11:56:37;7.30;;;2.92;;
75689;SDS011;64303;53.118;9.044;2023-07-22T11:59:05;7.35;;;3.53;;
75689;SDS011;64303;53.118;9.044;2023-07-22T12:01:34;7.90;;;3.50;;
75689;SDS011;64303;53.118;9.044;2023-07-22T12:04:00;5.53;;;2.92;;
75689;SDS011;64303;53.118;9.044;2023-07-22T12:06:27;8.38;;;3.55;;
75689;SDS011;64303;53.118;9.044;2023-07-22T12:08:54;4.90;;;3.72;;
75689;SDS011;64303;53.118;9.044;2023-07-22T12:11:21;6.25;;;5.65;;
75689;SDS011;64303;53.118;9.044;2023-07-22T12:13:50;5.43;;;2.67;;
75689;SDS011;64303;53.118;9.044;2023-07-22T12:16:31;5.78;;;2.50;;
75689;SDS011;64303;53.118;9.044;2023-07-22T12:18:57;5.68;;;3.60;;
75689;SDS011;64303;53.118;9.044;2023-07-22T12:21:24;7.50;;;3.05;;
75689;SDS011;64303;53.118;9.044;2023-07-22T12:23:52;6.75;;;3.97;;
75689;SDS011;64303;53.118;9.044;2023-07-22T12:26:19;4.93;;;2.83;;
75689;SDS011;64303;53.118;9.044;2023-07-22T12:28:46;6.35;;;3.60;;
75689;SDS011;64303;53.118;9.044;2023-07-22T12:31:14;5.20;;;3.97;;
75689;SDS011;64303;53.118;9.044;2023-07-22T12:33:41;6.22;;;2.85;;
75689;SDS011;64303;53.118;9.044;2023-07-22T12:36:08;5.75;;;4.07;;
75689;SDS011;64303;53.118;9.044;2023-07-22T12:38:35;4.70;;;3.28;;
75689;SDS011;64303;53.118;9.044;2023-07-22T12:41:02;6.05;;;5.07;;
75689;SDS011;64303;53.118;9.044;2023-07-22T12:43:28;4.95;;;4.15;;
75689;SDS011;64303;53.118;9.044;2023-07-22T12:45:56;5.40;;;3.05;;
75689;SDS011;64303;53.118;9.044;2023-07-22T12:48:24;12.18;;;2.90;;
75689;SDS011;64303;53.118;9.044;2023-07-22T12:50:51;6.97;;;2.47;;
75689;SDS011;64303;53.118;9.044;2023-07-22T12:53:17;6.57;;;5.97;;
75689;SDS011;64303;53.118;9.044;2023-07-22T12:55:44;5.72;;;3.85;;
75689;SDS011;64303;53.118;9.044;2023-07-22T12:58:10;5.68;;;3.63;;
75689;SDS011;64303;53.118;9.044;2023-07-22T13:00:37;4.90;;;3.33;;
75689;SDS011;64303;53.118;9.044;2023-07-22T13:03:04;5.43;;;3.28;;
75689;SDS011;64303;53.118;9.044;2023-07-22T13:05:32;4.80;;;2.95;;
75689;SDS011;64303;53.118;9.044;2023-07-22T13:07:58;6.10;;;4.60;;
75689;SDS011;64303;53.118;9.044;2023-07-22T13:10:26;5.32;;;3.50;;
75689;SDS011;64303;53.118;9.044;2023-07-22T13:12:54;6.30;;;3.30;;
75689;SDS011;64303;53.118;9.044;2023-07-22T13:15:21;6.10;;;4.63;;
75689;SDS011;64303;53.118;9.044;2023-07-22T13:17:47;5.97;;;4.43;;
75689;SDS011;64303;53.118;9.044;2023-07-22T13:20:14;8.60;;;4.97;;
75689;SDS011;64303;53.118;9.044;2023-07-22T13:22:42;11.15;;;4.40;;
75689;SDS011;64303;53.118;9.044;2023-07-22T13:25:09;8.82;;;5.03;;
75689;SDS011;64303;53.118;9.044;2023-07-22T13:27:35;8.98;;;6.05;;
75689;SDS011;64303;53.118;9.044;2023-07-22T13:32:31;8.25;;;5.15;;
75689;SDS011;64303;53.118;9.044;2023-07-22T13:34:57;8.20;;;5.97;;
75689;SDS011;64303;53.118;9.044;2023-07-22T13:37:24;8.68;;;5.72;;
75689;SDS011;64303;53.118;9.044;2023-07-22T13:39:52;9.27;;;6.50;;
75689;SDS011;64303;53.118;9.044;2023-07-22T13:42:20;9.27;;;6.22;;
75689;SDS011;64303;53.118;9.044;2023-07-22T13:44:47;8.40;;;5.00;;
75689;SDS011;64303;53.118;9.044;2023-07-22T13:47:13;10.32;;;6.03;;
75689;SDS011;64303;53.118;9.044;2023-07-22T13:49:40;17.10;;;7.25;;
75689;SDS011;64303;53.118;9.044;2023-07-22T13:52:07;9.40;;;6.32;;
75689;SDS011;64303;53.118;9.044;2023-07-22T13:54:33;9.60;;;7.03;;
75689;SDS011;64303;53.118;9.044;2023-07-22T13:57:01;10.05;;;8.82;;
75689;SDS011;64303;53.118;9.044;2023-07-22T13:59:28;11.50;;;7.82;;
75689;SDS011;64303;53.118;9.044;2023-07-22T14:01:55;11.50;;;6.78;;
75689;SDS011;64303;53.118;9.044;2023-07-22T14:04:22;8.73;;;6.93;;
75689;SDS011;64303;53.118;9.044;2023-07-22T14:06:48;11.68;;;7.43;;
75689;SDS011;64303;53.118;9.044;2023-07-22T14:09:15;9.90;;;6.70;;
75689;SDS011;64303;53.118;9.044;2023-07-22T14:11:42;12.35;;;7.13;;
75689;SDS011;64303;53.118;9.044;2023-07-22T14:14:10;13.20;;;8.63;;
75689;SDS011;64303;53.118;9.044;2023-07-22T14:19:03;9.00;;;6.63;;
75689;SDS011;64303;53.118;9.044;2023-07-22T14:21:30;10.35;;;7.47;;
75689;SDS011;64303;53.118;9.044;2023-07-22T14:23:57;12.63;;;8.82;;
75689;SDS011;64303;53.118;9.044;2023-07-22T14:26:23;11.25;;;8.85;;
75689;SDS011;64303;53.118;9.044;2023-07-22T14:28:50;10.90;;;7.22;;
75689;SDS011;64303;53.118;9.044;2023-07-22T14:31:18;12.02;;;9.68;;
75689;SDS011;64303;53.118;9.044;2023-07-22T14:33:45;12.95;;;9.00;;
75689;SDS011;64303;53.118;9.044;2023-07-22T14:36:11;12.27;;;8.40;;
75689;SDS011;64303;53.118;9.044;2023-07-22T14:38:38;11.40;;;7.72;;
75689;SDS011;64303;53.118;9.044;2023-07-22T14:41:05;11.52;;;7.43;;
75689;SDS011;64303;53.118;9.044;2023-07-22T14:43:32;12.35;;;8.30;;
75689;SDS011;64303;53.118;9.044;2023-07-22T14:45:58;13.10;;;9.05;;
75689;SDS011;64303;53.118;9.044;2023-07-22T14:48:26;13.50;;;7.85;;
75689;SDS011;64303;53.118;9.044;2023-07-22T14:50:53;12.15;;;8.18;;
75689;SDS011;64303;53.118;9.044;2023-07-22T14:53:20;11.57;;;7.70;;
75689;SDS011;64303;53.118;9.044;2023-07-22T14:55:46;13.90;;;8.30;;
75689;SDS011;64303;53.118;9.044;2023-07-22T14:58:13;13.80;;;8.45;;
75689;SDS011;64303;53.118;9.044;2023-07-22T15:00:39;15.63;;;10.00;;
75689;SDS011;64303;53.118;9.044;2023-07-22T15:03:07;15.48;;;10.40;;